createdAt,value
2022-10-13T00:01:19.176Z,1020.58
2022-10-13T00:31:19.144Z,1020.59
2022-10-13T01:01:19.138Z,1020.6
2022-10-13T01:31:19.148Z,1020.69
2022-10-13T02:01:19.134Z,1020.34
2022-10-13T02:31:19.138Z,1020.19
2022-10-13T03:01:19.156Z,1020.07
2022-10-13T03:31:19.136Z,1020.04
2022-10-13T04:01:19.228Z,1019.91
2022-10-13T04:31:19.155Z,1019.87
2022-10-13T05:01:22.156Z,1019.62
2022-10-13T05:31:19.157Z,1019.49
2022-10-13T06:01:19.166Z,1019.66
2022-10-13T06:31:19.173Z,1019.8
2022-10-13T07:01:19.182Z,1019.89
2022-10-13T07:31:19.171Z,1019.71
2022-10-13T08:01:19.246Z,1019.85
2022-10-13T08:31:19.480Z,1019.75
2022-10-13T09:01:19.263Z,1019.66
2022-10-13T09:31:19.192Z,1019.57
2022-10-13T10:01:19.194Z,1019.47
2022-10-13T10:31:19.211Z,1019.41
2022-10-13T11:01:19.224Z,1019.12
2022-10-13T11:31:19.238Z,1018.73
2022-10-13T12:01:19.206Z,1018.52
2022-10-13T12:31:19.202Z,1018.13
2022-10-13T13:01:19.273Z,1017.96
2022-10-13T13:31:19.218Z,1017.77
2022-10-13T14:01:19.271Z,1017.65
2022-10-13T14:31:19.224Z,1017.33
2022-10-13T15:01:19.244Z,1017.41
2022-10-13T15:31:19.245Z,1017.22
2022-10-13T16:01:19.299Z,1017.19
2022-10-13T16:31:19.269Z,1016.97
2022-10-13T17:01:19.294Z,1017.11
2022-10-13T17:31:19.269Z,1017.07
2022-10-13T18:01:19.333Z,1017
2022-10-13T18:31:19.261Z,1016.85
2022-10-13T19:01:19.364Z,1016.88
2022-10-13T19:31:19.281Z,1016.57
2022-10-13T20:01:19.312Z,1016.46
2022-10-13T20:31:19.282Z,1016.36
2022-10-13T21:01:19.409Z,1016.54
2022-10-13T21:31:19.292Z,1016.6
2022-10-13T22:01:19.322Z,1016.62
2022-10-13T22:31:19.315Z,1016.69
2022-10-13T23:01:19.324Z,1016.72
2022-10-13T23:31:19.334Z,1016.52
